Time;durP1;ratioP1;P1;durP2;ratioP2;P2;SDS_P1;SDS_P2;PMS_P1;PMS_P2;Temp;Humidity;BMP_temperature;BMP_pressure;BME280_temperature;BME280_humidity;BME280_pressure;Samples;Min_cycle;Max_cycle;Signal;HPM_P1;HPM_P2
2023/05/21 00:01:39;;;;;;;12.95;7.78;;;21.60;58.60;;;;;;4963775;28;20102;-74
2023/05/21 00:04:06;;;;;;;16.10;8.50;;;21.60;58.10;;;;;;4947656;28;20039;-74
2023/05/21 00:06:35;;;;;;;14.90;8.82;;;21.60;58.00;;;;;;4957446;28;20310;-74
2023/05/21 00:09:02;;;;;;;16.60;8.30;;;21.60;57.20;;;;;;4968844;28;20027;-74
2023/05/21 00:11:28;;;;;;;17.38;8.82;;;21.60;57.30;;;;;;4954060;28;20031;-75
2023/05/21 00:13:54;;;;;;;13.35;8.10;;;21.60;57.60;;;;;;4952987;29;20057;-75
2023/05/21 00:16:21;;;;;;;14.18;8.27;;;21.60;57.50;;;;;;4964184;28;20015;-74
2023/05/21 00:18:48;;;;;;;14.70;9.00;;;21.60;57.40;;;;;;4940419;29;20519;-74
2023/05/21 00:21:21;;;;;;;14.50;8.40;;;21.60;58.00;;;;;;4954103;29;20023;-74
2023/05/21 00:23:48;;;;;;;13.82;8.48;;;21.60;58.30;;;;;;4953941;29;20074;-74
2023/05/21 00:26:15;;;;;;;17.05;8.70;;;21.60;58.00;;;;;;4953652;29;20082;-73
2023/05/21 00:28:41;;;;;;;16.17;8.00;;;21.60;57.80;;;;;;4936237;28;20186;-73
2023/05/21 00:31:07;;;;;;;11.95;8.23;;;21.60;57.70;;;;;;4941997;28;20038;-74
2023/05/21 00:33:33;;;;;;;13.15;8.23;;;21.60;57.70;;;;;;4945193;28;21172;-74
2023/05/21 00:35:58;;;;;;;15.57;8.80;;;21.60;57.70;;;;;;4967063;28;20035;-74
2023/05/21 00:38:26;;;;;;;12.50;8.20;;;21.60;57.70;;;;;;4936325;29;20034;-74
2023/05/21 00:40:52;;;;;;;13.35;8.10;;;21.60;57.90;;;;;;4952302;28;20027;-73
2023/05/21 00:43:18;;;;;;;14.15;7.95;;;21.60;58.20;;;;;;4974371;28;20443;-74
2023/05/21 00:45:46;;;;;;;13.98;8.30;;;21.60;57.70;;;;;;4938542;29;20055;-74
2023/05/21 00:48:13;;;;;;;14.88;7.82;;;21.60;57.80;;;;;;4950481;29;20042;-74
2023/05/21 00:50:40;;;;;;;14.90;8.43;;;21.60;58.30;;;;;;4936185;29;20478;-74
2023/05/21 00:53:10;;;;;;;13.88;8.25;;;21.60;58.00;;;;;;4937178;29;20110;-74
2023/05/21 00:55:36;;;;;;;12.68;6.93;;;21.60;57.60;;;;;;4942731;28;20026;-73
2023/05/21 00:58:03;;;;;;;14.38;7.97;;;21.60;57.60;;;;;;4967719;28;20049;-73
2023/05/21 01:00:35;;;;;;;14.23;8.10;;;21.60;57.60;;;;;;4934842;29;20031;-74
2023/05/21 01:03:01;;;;;;;14.23;8.60;;;21.60;57.50;;;;;;4937054;29;20468;-73
2023/05/21 01:05:28;;;;;;;13.32;7.70;;;21.60;57.50;;;;;;4953177;29;20386;-73
2023/05/21 01:07:55;;;;;;;13.25;8.07;;;21.60;57.30;;;;;;4945492;28;20027;-73
2023/05/21 01:10:34;;;;;;;14.02;8.07;;;21.60;57.70;;;;;;4960827;28;20400;-74
2023/05/21 01:13:00;;;;;;;13.32;7.72;;;21.60;57.50;;;;;;4935592;29;20031;-73
2023/05/21 01:15:26;;;;;;;11.77;7.53;;;21.60;57.40;;;;;;4936772;29;20027;-74
2023/05/21 01:17:54;;;;;;;12.88;8.68;;;21.60;57.40;;;;;;4935633;29;20094;-74
2023/05/21 01:20:22;;;;;;;15.40;7.70;;;21.60;57.80;;;;;;4952735;28;20030;-74
2023/05/21 01:22:53;;;;;;;14.48;8.10;;;21.60;57.90;;;;;;4949904;28;20038;-73
2023/05/21 01:25:19;;;;;;;12.32;7.82;;;21.60;57.90;;;;;;4939772;29;20438;-75
2023/05/21 01:27:44;;;;;;;11.40;7.38;;;21.60;58.10;;;;;;4936171;29;20455;-74
2023/05/21 01:30:12;;;;;;;14.65;7.88;;;21.60;57.90;;;;;;4935020;29;20501;-74
2023/05/21 01:32:48;;;;;;;13.85;7.68;;;21.60;57.60;;;;;;4942034;29;20034;-74
2023/05/21 01:35:20;;;;;;;11.50;7.40;;;21.60;57.70;;;;;;4935148;29;20486;-73
2023/05/21 01:38:03;;;;;;;12.45;8.02;;;21.60;58.00;;;;;;4957739;28;20026;-74
2023/05/21 01:40:45;;;;;;;12.30;7.53;;;21.60;57.50;;;;;;4940882;29;20038;-74
2023/05/21 01:43:12;;;;;;;13.35;8.20;;;21.60;57.70;;;;;;4946559;28;20530;-74
2023/05/21 01:45:40;;;;;;;11.90;7.78;;;21.60;57.60;;;;;;4924705;29;20572;-74
2023/05/21 01:48:08;;;;;;;10.65;7.50;;;21.60;57.80;;;;;;4955661;28;20029;-73
2023/05/21 01:50:36;;;;;;;13.65;7.90;;;21.60;57.60;;;;;;4967415;28;20033;-74
2023/05/21 01:53:04;;;;;;;11.93;7.10;;;21.60;57.40;;;;;;4953090;29;20121;-74
2023/05/21 01:55:31;;;;;;;14.27;7.68;;;21.60;57.60;;;;;;4935128;29;20023;-74
2023/05/21 01:57:58;;;;;;;12.05;7.78;;;21.60;58.70;;;;;;4934714;29;20027;-74
2023/05/21 02:00:29;;;;;;;13.38;7.78;;;21.60;57.90;;;;;;4933470;29;20501;-74
2023/05/21 02:02:55;;;;;;;12.43;7.95;;;21.60;57.60;;;;;;4942036;28;20090;-74
2023/05/21 02:05:21;;;;;;;12.65;7.30;;;21.60;57.60;;;;;;4945719;29;20031;-74
2023/05/21 02:07:49;;;;;;;11.73;7.80;;;21.60;57.70;;;;;;4906262;29;20086;-74
2023/05/21 02:10:15;;;;;;;12.50;7.10;;;21.60;57.70;;;;;;4936978;28;20041;-74
2023/05/21 02:12:42;;;;;;;13.50;7.93;;;21.60;57.70;;;;;;4947831;28;20035;-73
2023/05/21 02:15:08;;;;;;;15.70;7.18;;;21.60;58.80;;;;;;4932489;28;20034;-74
2023/05/21 02:17:34;;;;;;;11.52;7.25;;;21.60;59.40;;;;;;4931779;28;20031;-74
2023/05/21 02:20:10;;;;;;;11.57;7.07;;;21.60;58.30;;;;;;4918378;29;20058;-74
2023/05/21 02:22:41;;;;;;;15.45;7.05;;;21.60;58.20;;;;;;4934810;29;20031;-74
2023/05/21 02:25:08;;;;;;;14.05;7.03;;;21.60;58.30;;;;;;4956664;28;20027;-74
2023/05/21 02:27:38;;;;;;;15.07;7.75;;;21.60;58.10;;;;;;4942352;28;20447;-73
2023/05/21 02:30:06;;;;;;;12.18;7.10;;;21.60;58.30;;;;;;4944072;28;20031;-74
2023/05/21 02:32:33;;;;;;;14.52;7.90;;;21.60;58.20;;;;;;4937589;28;20038;-74
2023/05/21 02:35:02;;;;;;;15.43;7.57;;;21.60;58.00;;;;;;4950428;28;20042;-75
2023/05/21 02:37:32;;;;;;;12.87;7.53;;;21.60;58.20;;;;;;4955040;28;20313;-74
2023/05/21 02:40:07;;;;;;;13.52;7.50;;;21.60;58.20;;;;;;4958714;28;20116;-74
2023/05/21 02:42:33;;;;;;;11.55;7.25;;;21.60;58.10;;;;;;4935305;28;20031;-74
2023/05/21 02:44:59;;;;;;;11.27;6.75;;;21.60;58.00;;;;;;4952952;28;20575;-74
2023/05/21 02:47:25;;;;;;;13.23;7.72;;;21.60;57.90;;;;;;4937258;29;20158;-74
2023/05/21 02:49:52;;;;;;;10.90;6.88;;;21.60;57.90;;;;;;4921838;29;20039;-75
2023/05/21 02:52:20;;;;;;;12.10;7.28;;;21.60;57.80;;;;;;4937877;29;20106;-75
2023/05/21 02:54:46;;;;;;;12.07;7.43;;;21.60;57.90;;;;;;4936096;28;20553;-74
2023/05/21 02:57:13;;;;;;;13.30;7.45;;;21.50;57.60;;;;;;4940734;29;20282;-75
2023/05/21 02:59:39;;;;;;;14.55;7.43;;;21.60;58.00;;;;;;4952149;28;20054;-74
2023/05/21 03:02:05;;;;;;;12.65;7.18;;;21.60;57.80;;;;;;4936048;29;20027;-74
2023/05/21 03:04:31;;;;;;;9.90;6.80;;;21.60;57.90;;;;;;4953315;29;20020;-74
2023/05/21 03:07:00;;;;;;;15.95;7.18;;;21.60;58.60;;;;;;4939100;28;20038;-73
2023/05/21 03:09:27;;;;;;;11.30;7.13;;;21.60;58.00;;;;;;4967159;28;20059;-74
2023/05/21 03:11:55;;;;;;;9.75;6.85;;;21.60;58.50;;;;;;4966094;28;20401;-74
2023/05/21 03:14:23;;;;;;;13.07;7.60;;;21.60;57.90;;;;;;4951091;28;20288;-74
2023/05/21 03:16:50;;;;;;;13.23;7.80;;;21.60;57.80;;;;;;4936085;29;20098;-74
2023/05/21 03:19:16;;;;;;;10.55;7.07;;;21.60;57.90;;;;;;4953883;28;20546;-74
2023/05/21 03:21:43;;;;;;;12.88;7.60;;;21.50;58.00;;;;;;4941779;28;20098;-73
2023/05/21 03:24:12;;;;;;;11.48;7.32;;;21.50;58.10;;;;;;4944349;29;20107;-73
2023/05/21 03:26:38;;;;;;;12.53;7.00;;;21.60;58.20;;;;;;4949559;28;20027;-73
2023/05/21 03:29:04;;;;;;;11.20;6.63;;;21.60;58.00;;;;;;4961148;28;20113;-73
2023/05/21 03:31:30;;;;;;;13.50;8.18;;;21.60;58.00;;;;;;4939239;29;20094;-73
2023/05/21 03:34:08;;;;;;;11.52;7.30;;;21.60;58.00;;;;;;4928882;28;20552;-73
2023/05/21 03:36:34;;;;;;;13.27;7.35;;;21.60;57.80;;;;;;4935094;28;20038;-73
2023/05/21 03:39:02;;;;;;;12.73;7.07;;;21.60;58.10;;;;;;4937297;29;20102;-73
2023/05/21 03:41:29;;;;;;;12.45;7.60;;;21.60;57.80;;;;;;4938068;29;20024;-73
2023/05/21 03:44:04;;;;;;;11.77;7.43;;;21.50;57.80;;;;;;4938082;29;20027;-74
2023/05/21 03:46:37;;;;;;;13.00;7.85;;;21.60;57.80;;;;;;4953943;28;20027;-73
2023/05/21 03:49:06;;;;;;;13.15;7.50;;;21.60;58.10;;;;;;4955486;28;20062;-73
2023/05/21 03:51:34;;;;;;;10.85;7.28;;;21.60;57.90;;;;;;4937494;29;20055;-74
2023/05/21 03:54:00;;;;;;;11.55;7.95;;;21.50;58.10;;;;;;4923298;29;20375;-73
2023/05/21 03:56:27;;;;;;;11.57;7.03;;;21.60;58.20;;;;;;4934997;28;20028;-73
2023/05/21 03:58:53;;;;;;;14.98;7.38;;;21.50;58.00;;;;;;4953455;28;20030;-73
2023/05/21 04:01:19;;;;;;;11.35;7.20;;;21.60;58.30;;;;;;4938285;29;20107;-73
2023/05/21 04:03:47;;;;;;;12.93;7.18;;;21.60;58.20;;;;;;4938650;29;20031;-73
2023/05/21 04:06:14;;;;;;;10.40;6.93;;;21.60;58.40;;;;;;4953571;29;20027;-73
2023/05/21 04:08:41;;;;;;;11.55;7.22;;;21.60;58.40;;;;;;4956487;29;20023;-73
2023/05/21 04:11:08;;;;;;;13.27;7.32;;;21.50;58.20;;;;;;4963491;28;20042;-73
2023/05/21 04:13:35;;;;;;;11.82;7.43;;;21.50;58.20;;;;;;4957338;28;20077;-74
2023/05/21 04:16:00;;;;;;;10.52;6.97;;;21.50;58.10;;;;;;4921355;29;20048;-73
2023/05/21 04:18:26;;;;;;;12.07;7.20;;;21.60;58.20;;;;;;4938316;29;20054;-73
2023/05/21 04:20:52;;;;;;;13.82;7.72;;;21.60;58.50;;;;;;4953872;29;20034;-73
2023/05/21 04:23:18;;;;;;;11.25;7.47;;;21.60;58.40;;;;;;4939277;29;20389;-73
2023/05/21 04:25:49;;;;;;;10.93;7.00;;;21.60;58.60;;;;;;4952572;28;20030;-73
2023/05/21 04:28:18;;;;;;;12.93;7.45;;;21.60;58.50;;;;;;4950436;29;20512;-73
2023/05/21 04:30:46;;;;;;;;;;;21.60;58.70;;;;;;4954523;28;20170;-73
2023/05/21 04:33:16;;;;;;;11.35;6.85;;;21.60;58.50;;;;;;4937509;29;19918;-73
2023/05/21 04:35:43;;;;;;;13.63;8.25;;;21.60;58.60;;;;;;4954626;29;20031;-73
2023/05/21 04:38:09;;;;;;;12.05;7.47;;;21.60;58.50;;;;;;4938319;29;20071;-73
2023/05/21 04:40:36;;;;;;;11.50;7.60;;;21.60;58.80;;;;;;4946365;29;20031;-73
2023/05/21 04:43:03;;;;;;;10.48;7.57;;;21.60;58.30;;;;;;4938508;28;20489;-74
2023/05/21 04:45:29;;;;;;;10.43;7.20;;;21.60;58.30;;;;;;4937581;29;20034;-73
2023/05/21 04:47:59;;;;;;;11.27;7.47;;;21.60;58.30;;;;;;4937230;29;20478;-73
2023/05/21 04:50:29;;;;;;;11.75;7.53;;;21.60;58.10;;;;;;4951205;29;20127;-73
2023/05/21 04:52:55;;;;;;;13.30;8.00;;;21.50;58.40;;;;;;4942225;28;20493;-73
2023/05/21 04:55:21;;;;;;;12.25;7.88;;;21.60;58.50;;;;;;4943582;28;20492;-73
2023/05/21 04:57:47;;;;;;;12.32;7.55;;;21.60;58.70;;;;;;4921263;29;20035;-73
2023/05/21 05:00:13;;;;;;;11.40;7.78;;;21.60;58.20;;;;;;4943165;29;20030;-73
2023/05/21 05:02:42;;;;;;;12.05;8.13;;;21.50;58.40;;;;;;4955715;28;20260;-74
2023/05/21 05:05:08;;;;;;;13.68;8.25;;;21.50;58.40;;;;;;4946608;29;20489;-75
2023/05/21 05:07:34;;;;;;;15.15;8.40;;;21.60;58.40;;;;;;4936243;29;20027;-74
2023/05/21 05:10:00;;;;;;;10.75;7.57;;;21.50;58.40;;;;;;4940092;29;20031;-74
2023/05/21 05:12:26;;;;;;;12.25;7.75;;;21.50;58.20;;;;;;4936941;29;20457;-74
2023/05/21 05:14:51;;;;;;;11.82;7.50;;;21.50;58.60;;;;;;4936010;29;20454;-74
2023/05/21 05:17:17;;;;;;;12.45;7.80;;;21.60;58.40;;;;;;4926239;28;20119;-74
2023/05/21 05:19:43;;;;;;;10.40;7.25;;;21.50;58.50;;;;;;4943719;28;20397;-74
2023/05/21 05:22:09;;;;;;;13.13;7.18;;;21.60;58.80;;;;;;4934604;29;20067;-74
2023/05/21 05:24:35;;;;;;;11.95;7.70;;;21.60;58.90;;;;;;4935823;29;20038;-74
2023/05/21 05:27:01;;;;;;;13.73;8.13;;;21.60;58.90;;;;;;4935779;29;20393;-74
2023/05/21 05:29:27;;;;;;;12.98;7.88;;;21.60;58.70;;;;;;4959362;28;20038;-74
2023/05/21 05:31:53;;;;;;;10.93;7.10;;;21.60;58.60;;;;;;4949981;28;20396;-74
2023/05/21 05:34:20;;;;;;;11.68;7.55;;;21.60;58.50;;;;;;4938724;29;20028;-73
2023/05/21 05:36:47;;;;;;;11.98;7.40;;;21.60;58.80;;;;;;4936283;29;20036;-74
2023/05/21 05:39:13;;;;;;;12.60;8.20;;;21.60;58.60;;;;;;4934656;29;20329;-74
2023/05/21 05:41:39;;;;;;;12.75;7.78;;;21.60;58.70;;;;;;4938645;28;20023;-74
2023/05/21 05:44:05;;;;;;;12.40;8.25;;;21.60;58.40;;;;;;4948810;28;20038;-74
2023/05/21 05:46:34;;;;;;;12.30;7.88;;;21.60;58.50;;;;;;4954472;28;20039;-73
2023/05/21 05:49:00;;;;;;;13.18;8.07;;;21.60;58.50;;;;;;4969285;28;20034;-73
2023/05/21 05:51:26;;;;;;;12.23;7.72;;;21.60;58.70;;;;;;4935271;29;20102;-73
2023/05/21 05:53:52;;;;;;;13.45;8.23;;;21.60;59.00;;;;;;4939618;28;20071;-73
2023/05/21 05:56:18;;;;;;;12.00;7.63;;;21.60;58.40;;;;;;4956412;28;20090;-72
2023/05/21 05:58:44;;;;;;;12.68;8.38;;;21.60;59.30;;;;;;4936125;28;20023;-73
2023/05/21 06:01:15;;;;;;;11.10;7.43;;;21.60;58.50;;;;;;4940017;28;20031;-72
2023/05/21 06:03:41;;;;;;;12.32;8.07;;;21.60;58.60;;;;;;4951846;28;20031;-73
2023/05/21 06:06:13;;;;;;;14.77;7.47;;;21.60;58.60;;;;;;4903642;29;20437;-73
2023/05/21 06:08:39;;;;;;;14.32;8.10;;;21.60;58.80;;;;;;4935840;28;20023;-74
2023/05/21 06:11:05;;;;;;;12.27;8.18;;;21.60;58.50;;;;;;4953781;28;20110;-74
2023/05/21 06:13:30;;;;;;;13.23;8.20;;;21.70;58.70;;;;;;4951607;28;20030;-74
2023/05/21 06:15:56;;;;;;;12.30;8.45;;;21.60;58.60;;;;;;4953253;29;20078;-74
2023/05/21 06:18:22;;;;;;;10.48;7.75;;;21.60;58.70;;;;;;4952077;28;20119;-74
2023/05/21 06:20:48;;;;;;;13.23;7.93;;;21.60;59.10;;;;;;4934849;29;20027;-74
2023/05/21 06:23:15;;;;;;;12.70;8.25;;;21.60;59.20;;;;;;4934278;29;20033;-74
2023/05/21 06:25:44;;;;;;;11.82;7.90;;;21.60;58.70;;;;;;4942236;28;20110;-73
2023/05/21 06:28:10;;;;;;;13.10;7.85;;;21.60;59.30;;;;;;4957519;28;20024;-73
2023/05/21 06:30:37;;;;;;;20.45;7.82;;;21.70;59.70;;;;;;4953642;28;20529;-73
2023/05/21 06:33:03;;;;;;;16.35;8.32;;;21.70;59.20;;;;;;4934284;29;20395;-73
2023/05/21 06:35:30;;;;;;;12.02;8.25;;;21.70;59.30;;;;;;4935067;29;20073;-73
2023/05/21 06:37:56;;;;;;;11.70;8.10;;;21.70;58.70;;;;;;4938753;28;20081;-73
2023/05/21 06:40:21;;;;;;;13.00;8.25;;;21.70;59.40;;;;;;4947887;28;20046;-73
2023/05/21 06:42:50;;;;;;;12.77;8.27;;;21.70;59.00;;;;;;4913728;29;20508;-74
2023/05/21 06:45:45;;;;;;;12.77;7.53;;;21.60;58.90;;;;;;4934205;29;20098;-73
2023/05/21 06:48:26;;;;;;;14.40;8.73;;;21.70;59.80;;;;;;4942193;28;20039;-74
2023/05/21 06:50:52;;;;;;;10.82;7.70;;;21.60;59.10;;;;;;4935795;29;20046;-74
2023/05/21 06:53:18;;;;;;;11.75;7.70;;;21.70;59.90;;;;;;4942733;28;20035;-73
2023/05/21 06:55:44;;;;;;;12.52;9.02;;;21.70;59.40;;;;;;4952299;28;20110;-73
2023/05/21 06:58:14;;;;;;;12.68;8.35;;;21.60;59.20;;;;;;4960134;28;20023;-73
2023/05/21 07:00:40;;;;;;;10.98;7.65;;;21.60;60.00;;;;;;4938430;28;20034;-73
2023/05/21 07:03:06;;;;;;;12.07;7.85;;;21.70;59.30;;;;;;4938559;29;20506;-73
2023/05/21 07:05:32;;;;;;;13.57;8.30;;;21.70;59.70;;;;;;4938500;29;20110;-73
2023/05/21 07:07:58;;;;;;;11.65;7.97;;;21.70;59.10;;;;;;4942490;28;20035;-73
2023/05/21 07:10:24;;;;;;;13.05;7.80;;;21.70;59.30;;;;;;4950211;28;20034;-73
2023/05/21 07:12:50;;;;;;;12.55;7.90;;;21.70;59.60;;;;;;4936918;29;20035;-73
2023/05/21 07:15:16;;;;;;;12.77;8.15;;;21.70;59.80;;;;;;4938264;29;20031;-73
2023/05/21 07:17:42;;;;;;;13.52;8.00;;;21.70;60.90;;;;;;4955016;28;20061;-73
2023/05/21 07:20:08;;;;;;;10.90;7.53;;;21.70;60.00;;;;;;4947405;28;20054;-73
2023/05/21 07:22:37;;;;;;;10.50;7.50;;;21.70;60.40;;;;;;4940470;29;20478;-73
2023/05/21 07:25:05;;;;;;;13.02;8.02;;;21.70;60.10;;;;;;4937821;29;20283;-74
2023/05/21 07:27:31;;;;;;;11.23;7.55;;;21.80;60.40;;;;;;4922784;29;20034;-73
2023/05/21 07:29:57;;;;;;;11.40;7.85;;;21.80;60.50;;;;;;4937590;29;20046;-74
2023/05/21 07:32:23;;;;;;;11.50;7.50;;;21.80;60.50;;;;;;4960419;28;20058;-74
2023/05/21 07:34:49;;;;;;;11.88;7.80;;;21.80;60.50;;;;;;4954105;28;20031;-73
2023/05/21 07:37:15;;;;;;;10.35;7.60;;;21.80;60.60;;;;;;4943060;29;20545;-73
2023/05/21 07:39:41;;;;;;;13.57;8.45;;;21.80;60.70;;;;;;4955065;29;20063;-73
2023/05/21 07:42:08;;;;;;;12.20;7.47;;;21.80;60.60;;;;;;4937703;29;20055;-73
2023/05/21 07:44:33;;;;;;;10.77;7.45;;;21.80;60.60;;;;;;4919252;29;20076;-74
2023/05/21 07:46:59;;;;;;;12.73;7.80;;;21.80;60.70;;;;;;4962971;28;20498;-74
2023/05/21 07:49:26;;;;;;;10.30;7.20;;;21.90;60.40;;;;;;4942668;28;20587;-74
2023/05/21 07:51:52;;;;;;;14.40;8.57;;;21.80;60.20;;;;;;4943182;29;20035;-74
2023/05/21 07:54:19;;;;;;;10.95;7.65;;;21.80;60.00;;;;;;4938791;29;20028;-74
2023/05/21 07:56:45;;;;;;;11.90;7.85;;;21.80;60.50;;;;;;4937431;29;20031;-74
2023/05/21 07:59:24;;;;;;;11.00;7.80;;;21.80;60.50;;;;;;4921625;29;20425;-74
2023/05/21 08:01:53;;;;;;;10.93;8.05;;;21.80;60.60;;;;;;4949070;28;20023;-74
2023/05/21 08:04:19;;;;;;;10.95;7.57;;;21.80;60.30;;;;;;4937476;29;20027;-74
2023/05/21 08:06:45;;;;;;;12.20;7.80;;;21.80;60.60;;;;;;4937181;29;20034;-74
2023/05/21 08:09:11;;;;;;;9.95;7.15;;;21.80;60.30;;;;;;4954216;29;20032;-74
2023/05/21 08:11:37;;;;;;;13.70;8.30;;;21.80;61.40;;;;;;4940336;28;20046;-74
2023/05/21 08:14:03;;;;;;;23.92;8.00;;;21.80;61.10;;;;;;4965025;28;20098;-73
2023/05/21 08:16:29;;;;;;;20.77;8.23;;;21.90;61.40;;;;;;4937893;29;20031;-73
2023/05/21 08:18:55;;;;;;;16.58;7.80;;;21.80;61.40;;;;;;4922101;29;20513;-73
2023/05/21 08:21:22;;;;;;;14.15;8.40;;;21.80;61.10;;;;;;4929124;28;20039;-73
2023/05/21 08:23:47;;;;;;;12.23;8.07;;;21.90;61.30;;;;;;4957222;28;20046;-72
2023/05/21 08:26:20;;;;;;;16.42;7.80;;;21.90;61.20;;;;;;4958062;28;20030;-73
2023/05/21 08:28:46;;;;;;;12.45;8.15;;;21.90;61.30;;;;;;4953838;28;20037;-73
2023/05/21 08:31:12;;;;;;;14.52;8.68;;;21.90;61.20;;;;;;4936877;29;20043;-73
2023/05/21 08:33:38;;;;;;;13.90;8.50;;;21.90;61.40;;;;;;4961899;28;20035;-73
2023/05/21 08:36:06;;;;;;;19.05;8.05;;;21.90;61.40;;;;;;4966040;28;20490;-75
2023/05/21 08:38:37;;;;;;;17.65;8.50;;;21.90;61.50;;;;;;4940859;28;20031;-73
2023/05/21 08:41:25;;;;;;;18.35;8.35;;;21.90;61.60;;;;;;4957239;28;20038;-74
2023/05/21 08:43:58;;;;;;;16.30;8.13;;;22.00;61.10;;;;;;4956994;28;20041;-73
2023/05/21 08:46:31;;;;;;;16.90;8.25;;;21.90;61.70;;;;;;4957707;28;20128;-74
2023/05/21 08:49:00;;;;;;;25.10;8.35;;;21.90;61.00;;;;;;4958333;28;20519;-73
2023/05/21 08:51:26;;;;;;;22.35;8.52;;;21.90;61.40;;;;;;4956839;28;20049;-73
2023/05/21 08:53:54;;;;;;;11.55;7.68;;;22.00;61.70;;;;;;4948169;29;20119;-73
2023/05/21 08:56:20;;;;;;;26.75;8.80;;;21.90;61.80;;;;;;4966841;28;20564;-73
2023/05/21 08:58:58;;;;;;;17.70;7.90;;;21.90;62.00;;;;;;4926864;29;20023;-72
2023/05/21 09:01:27;;;;;;;14.82;7.88;;;21.90;62.20;;;;;;4943678;28;20031;-74
2023/05/21 09:04:01;;;;;;;23.58;8.02;;;21.90;62.30;;;;;;4943462;29;20042;-74
2023/05/21 09:06:27;;;;;;;14.50;8.50;;;21.90;62.50;;;;;;4935439;29;20039;-73
2023/05/21 09:09:05;;;;;;;17.08;8.57;;;21.90;61.60;;;;;;4919137;28;20082;-74
2023/05/21 09:11:42;;;;;;;16.70;8.35;;;21.90;62.70;;;;;;4945627;28;20030;-75
2023/05/21 09:14:10;;;;;;;17.08;8.55;;;21.90;62.60;;;;;;4956201;28;20026;-74
2023/05/21 09:16:54;;;;;;;18.27;8.40;;;21.90;62.60;;;;;;4954172;28;20121;-73
2023/05/21 09:19:23;;;;;;;12.38;7.78;;;22.00;62.30;;;;;;4936482;29;20063;-81
2023/05/21 09:21:52;;;;;;;14.98;7.88;;;22.00;62.50;;;;;;4941969;28;20029;-78
2023/05/21 09:24:23;;;;;;;14.75;8.45;;;22.00;62.40;;;;;;4978462;28;20038;-81
2023/05/21 09:26:50;;;;;;;20.38;8.60;;;22.00;62.10;;;;;;4971728;28;20042;-78
2023/05/21 09:29:16;;;;;;;16.38;9.07;;;22.10;61.70;;;;;;4947007;28;20058;-80
2023/05/21 09:31:44;;;;;;;14.55;8.55;;;22.20;61.70;;;;;;4965383;28;20041;-79
2023/05/21 09:34:12;;;;;;;25.48;9.57;;;22.20;61.50;;;;;;4961648;28;20027;-81
2023/05/21 09:36:39;;;;;;;17.48;9.73;;;22.20;61.20;;;;;;4951784;28;20026;-83
2023/05/21 09:39:05;;;;;;;20.35;9.30;;;22.30;61.00;;;;;;4946249;28;20504;-82
2023/05/21 09:41:33;;;;;;;16.60;9.23;;;22.30;61.10;;;;;;4943154;28;20023;-81
2023/05/21 09:44:00;;;;;;;13.85;9.10;;;22.40;61.30;;;;;;4927277;29;20058;-83
2023/05/21 09:46:35;;;;;;;15.68;9.77;;;22.40;60.90;;;;;;4946820;28;20058;-82
2023/05/21 09:49:01;;;;;;;16.10;9.80;;;22.40;60.80;;;;;;4957179;28;20031;-82
2023/05/21 09:51:28;;;;;;;25.30;10.32;;;22.40;61.10;;;;;;4957645;28;20062;-81
2023/05/21 09:53:58;;;;;;;18.05;10.05;;;22.50;61.10;;;;;;4944169;28;20639;-79
2023/05/21 09:56:26;;;;;;;16.20;9.50;;;22.50;60.90;;;;;;4940705;29;20030;-85
2023/05/21 09:59:05;;;;;;;23.75;9.50;;;22.50;60.60;;;;;;4921556;29;20043;-83
2023/05/21 10:01:35;;;;;;;15.57;8.55;;;22.50;60.40;;;;;;4937363;29;20433;-82
2023/05/21 10:04:05;;;;;;;13.20;9.27;;;22.50;60.30;;;;;;4933911;29;20031;-82
2023/05/21 10:06:34;;;;;;;18.50;9.80;;;22.50;60.10;;;;;;4935975;28;20252;-82
2023/05/21 10:09:02;;;;;;;17.83;8.55;;;22.50;60.40;;;;;;4966419;28;20032;-82
2023/05/21 10:11:30;;;;;;;12.98;8.10;;;22.50;59.60;;;;;;4935828;29;20050;-81
2023/05/21 10:14:11;;;;;;;17.13;8.57;;;22.50;59.20;;;;;;4935966;29;20027;-84
2023/05/21 10:16:36;;;;;;;11.93;7.75;;;22.70;60.70;;;;;;4953481;28;20035;-79
2023/05/21 10:19:04;;;;;;;13.30;7.95;;;22.70;60.20;;;;;;4955422;28;20069;-80
2023/05/21 10:21:32;;;;;;;23.27;8.55;;;22.80;59.50;;;;;;4987615;23;20050;-81
2023/05/21 10:24:00;;;;;;;15.05;8.40;;;22.90;59.00;;;;;;5012173;28;20104;-82
2023/05/21 10:26:26;;;;;;;19.05;8.52;;;23.00;58.80;;;;;;5012377;28;20468;-82
2023/05/21 10:28:55;;;;;;;18.20;8.30;;;23.10;58.60;;;;;;5010559;28;20037;-82
2023/05/21 10:31:22;;;;;;;14.82;8.02;;;23.10;58.60;;;;;;4993783;28;20023;-80
2023/05/21 10:33:48;;;;;;;16.27;7.70;;;23.30;57.40;;;;;;5010996;28;20534;-88
2023/05/21 10:36:16;;;;;;;14.70;7.40;;;23.20;57.60;;;;;;4952004;28;20058;-86
2023/05/21 10:38:43;;;;;;;11.88;8.07;;;23.20;57.60;;;;;;4977639;28;20116;-86
2023/05/21 10:41:12;;;;;;;13.13;8.10;;;23.10;58.00;;;;;;4959780;28;20038;-82
2023/05/21 10:43:43;;;;;;;24.40;8.60;;;23.00;58.40;;;;;;5007401;28;20072;-85
2023/05/21 10:46:21;;;;;;;20.98;9.00;;;23.00;59.30;;;;;;4994311;28;20069;-86
2023/05/21 10:49:07;;;;;;;16.00;9.02;;;22.90;59.00;;;;;;4977521;28;20065;-85
2023/05/21 10:51:47;;;;;;;15.43;9.18;;;22.80;59.00;;;;;;4991624;28;20174;-86
2023/05/21 10:54:40;;;;;;;15.27;9.35;;;22.70;59.40;;;;;;5012615;28;20488;-86
2023/05/21 10:57:58;;;;;;;20.50;9.43;;;22.70;59.60;;;;;;4978293;28;20038;-84
2023/05/21 11:00:25;;;;;;;15.60;9.63;;;22.70;59.50;;;;;;4920365;28;20491;-87
2023/05/21 11:02:51;;;;;;;15.95;9.60;;;22.60;59.40;;;;;;5008072;28;20056;-87
2023/05/21 11:05:49;;;;;;;17.00;9.75;;;22.60;59.40;;;;;;4976233;28;20096;-85
2023/05/21 11:08:30;;;;;;;17.30;8.65;;;22.60;59.30;;;;;;4993844;28;20022;-85
2023/05/21 11:10:58;;;;;;;16.55;9.40;;;22.60;59.30;;;;;;4987435;28;20116;-86
2023/05/21 11:13:26;;;;;;;15.63;8.60;;;22.60;59.20;;;;;;4979394;28;20088;-86
2023/05/21 11:15:57;;;;;;;14.25;8.65;;;22.50;59.20;;;;;;4995655;28;20030;-86
2023/05/21 11:18:32;;;;;;;17.20;8.45;;;22.50;58.90;;;;;;4974601;28;20038;-86
2023/05/21 11:21:12;;;;;;;17.77;8.48;;;22.60;58.90;;;;;;4995387;28;20045;-87
2023/05/21 11:23:50;;;;;;;14.45;8.07;;;22.50;58.70;;;;;;5011954;28;20092;-82
2023/05/21 11:26:16;;;;;;;16.40;8.02;;;22.50;58.50;;;;;;4994440;28;20083;-83
2023/05/21 11:28:42;;;;;;;15.82;8.18;;;22.50;58.30;;;;;;4977509;28;20069;-83
2023/05/21 11:31:28;;;;;;;11.88;7.80;;;22.60;58.10;;;;;;5011353;28;20084;-83
2023/05/21 11:34:14;;;;;;;13.95;7.80;;;22.60;57.60;;;;;;4960547;28;20076;-83
2023/05/21 11:36:43;;;;;;;12.68;7.47;;;22.60;57.10;;;;;;4973862;28;20455;-83
2023/05/21 11:39:10;;;;;;;13.35;7.47;;;22.60;57.00;;;;;;4993580;28;20111;-83
2023/05/21 11:42:01;;;;;;;12.27;7.60;;;22.60;56.80;;;;;;5014428;28;20064;-83
2023/05/21 11:44:46;;;;;;;14.88;7.38;;;22.60;56.80;;;;;;5013082;28;20025;-83
2023/05/21 11:47:13;;;;;;;19.88;6.93;;;22.70;56.80;;;;;;4996959;28;20034;-84
2023/05/21 11:49:40;;;;;;;11.13;7.68;;;22.60;56.60;;;;;;4996306;28;20786;-83
2023/05/21 11:52:07;;;;;;;15.73;6.93;;;22.60;56.20;;;;;;4981068;28;20545;-83
2023/05/21 11:54:49;;;;;;;11.07;6.85;;;22.70;56.20;;;;;;4980934;28;20033;-83
2023/05/21 11:57:17;;;;;;;16.42;6.78;;;22.70;56.00;;;;;;5011694;28;20022;-83
2023/05/21 11:59:47;;;;;;;21.38;6.78;;;22.70;55.60;;;;;;4993848;28;20049;-86
2023/05/21 12:02:18;;;;;;;12.80;7.15;;;22.70;56.80;;;;;;5019015;28;20026;-82
2023/05/21 12:04:45;;;;;;;16.30;6.80;;;22.70;55.90;;;;;;5012279;28;20060;-85
2023/05/21 12:07:12;;;;;;;16.55;6.85;;;22.70;55.10;;;;;;4986930;28;20033;-82
2023/05/21 12:09:38;;;;;;;14.20;6.65;;;22.70;55.60;;;;;;5010322;28;20520;-83
2023/05/21 12:12:05;;;;;;;20.95;7.95;;;22.70;54.80;;;;;;5008302;28;20057;-80
2023/05/21 12:14:31;;;;;;;11.55;6.90;;;22.80;56.30;;;;;;4993025;28;20030;-83
2023/05/21 12:16:57;;;;;;;18.88;7.20;;;22.90;55.10;;;;;;5012055;28;20108;-84
2023/05/21 12:19:23;;;;;;;17.38;6.90;;;22.90;58.00;;;;;;4995332;28;20804;-84
2023/05/21 12:21:49;;;;;;;14.02;7.63;;;23.00;55.60;;;;;;4979210;28;20034;-84
2023/05/21 12:24:15;;;;;;;25.30;7.38;;;23.00;55.50;;;;;;4995403;28;20049;-81
2023/05/21 12:26:43;;;;;;;15.98;6.55;;;22.90;55.50;;;;;;5002394;28;20346;-81
2023/05/21 12:29:09;;;;;;;14.70;6.57;;;22.90;55.30;;;;;;5005799;28;20414;-83
2023/05/21 12:31:48;;;;;;;15.35;6.50;;;22.90;54.90;;;;;;5010696;28;20018;-80
2023/05/21 12:34:17;;;;;;;17.50;6.90;;;22.90;57.20;;;;;;5002516;28;20037;-75
2023/05/21 12:36:50;;;;;;;16.55;7.30;;;22.90;56.50;;;;;;5010490;28;20026;-74
2023/05/21 12:39:16;;;;;;;13.10;7.10;;;22.80;55.80;;;;;;5009559;28;20041;-74
2023/05/21 12:41:42;;;;;;;15.20;6.93;;;22.70;56.00;;;;;;4994988;28;20034;-74
2023/05/21 12:44:10;;;;;;;13.30;6.80;;;22.70;56.50;;;;;;5012666;28;20041;-74
2023/05/21 12:46:36;;;;;;;11.77;6.30;;;22.60;56.90;;;;;;5012588;28;20033;-74